Time;durP1;ratioP1;P1;durP2;ratioP2;P2;SDS_P1;SDS_P2;PMS_P1;PMS_P2;Temp;Humidity;BMP_temperature;BMP_pressure;BME280_temperature;BME280_humidity;BME280_pressure;Samples;Min_cycle;Max_cycle;Signal;HPM_P1;HPM_P2
2023/12/12 00:00:09;;;;;;;27.93;12.10;;;;;;;5.25;100.00;100418.69;7396047;19;20418;-41
2023/12/12 00:02:39;;;;;;;36.63;13.73;;;;;;;5.31;100.00;100413.03;7377511;19;20401;-39
2023/12/12 00:05:09;;;;;;;37.70;13.87;;;;;;;5.26;100.00;100410.22;7396666;19;20423;-39
2023/12/12 00:07:38;;;;;;;32.07;13.50;;;;;;;5.23;100.00;100409.16;7374515;19;20961;-39
2023/12/12 00:10:11;;;;;;;46.70;18.33;;;;;;;5.22;100.00;100403.16;7395791;19;20486;-39
2023/12/12 00:12:41;;;;;;;38.27;12.23;;;;;;;5.20;100.00;100398.75;7375784;19;20431;-37
2023/12/12 00:15:11;;;;;;;40.87;15.60;;;;;;;5.14;100.00;100389.06;7398359;19;20429;-39
2023/12/12 00:17:41;;;;;;;46.63;15.90;;;;;;;5.10;100.00;100392.22;7377501;19;20395;-38
2023/12/12 00:20:11;;;;;;;39.87;13.30;;;;;;;5.06;100.00;100385.16;7396786;19;20399;-38
2023/12/12 00:22:41;;;;;;;30.67;11.37;;;;;;;5.04;100.00;100392.75;7375027;19;20406;-39
2023/12/12 00:25:13;;;;;;;42.73;13.30;;;;;;;5.06;100.00;100396.28;7398042;19;21327;-39
2023/12/12 00:27:42;;;;;;;38.67;13.40;;;;;;;5.05;100.00;100408.97;7375663;19;20399;-38
2023/12/12 00:30:13;;;;;;;30.50;10.93;;;;;;;5.04;100.00;100415.78;7396191;19;20413;-39
2023/12/12 00:32:42;;;;;;;28.43;10.77;;;;;;;5.00;100.00;100427.50;7375444;19;20450;-40
2023/12/12 00:35:12;;;;;;;29.47;10.27;;;;;;;5.06;100.00;100433.72;7396474;19;20800;-40
2023/12/12 00:37:42;;;;;;;37.10;12.93;;;;;;;5.06;100.00;100434.63;7376577;19;20474;-39
2023/12/12 00:40:14;;;;;;;28.50;10.60;;;;;;;5.06;100.00;100442.31;7395445;19;20411;-40
2023/12/12 00:42:44;;;;;;;31.77;11.80;;;;;;;5.07;100.00;100450.88;7373592;19;20422;-38
2023/12/12 00:45:14;;;;;;;32.80;12.30;;;;;;;5.07;100.00;100444.06;7395816;19;20432;-42
2023/12/12 00:47:44;;;;;;;31.80;13.20;;;;;;;5.08;100.00;100439.84;7372806;19;20399;-39
2023/12/12 00:50:14;;;;;;;31.20;12.67;;;;;;;5.08;100.00;100444.97;7395132;19;20407;-38
2023/12/12 00:52:44;;;;;;;28.47;11.83;;;;;;;5.05;100.00;100437.09;7375419;19;20431;-40
2023/12/12 00:55:16;;;;;;;35.07;12.83;;;;;;;5.02;100.00;100429.25;7395158;19;20423;-41
2023/12/12 00:57:45;;;;;;;34.27;12.77;;;;;;;5.03;100.00;100420.78;7374367;19;20448;-40
2023/12/12 01:00:17;;;;;;;30.83;12.50;;;;;;;5.04;100.00;100415.78;7397344;19;20418;-39
2023/12/12 01:02:46;;;;;;;28.57;11.83;;;;;;;5.09;100.00;100405.81;7373569;19;20970;-39
2023/12/12 01:05:16;;;;;;;32.30;12.93;;;;;;;5.05;100.00;100393.63;7396026;19;20443;-37
2023/12/12 01:07:45;;;;;;;33.17;13.60;;;;;;;5.03;100.00;100382.44;7373731;19;20420;-39
2023/12/12 01:10:18;;;;;;;32.53;14.00;;;;;;;5.10;100.00;100371.75;7394671;19;20491;-40
2023/12/12 01:12:47;;;;;;;32.67;12.93;;;;;;;5.11;100.00;100373.50;7374277;19;20448;-40
2023/12/12 01:15:17;;;;;;;35.17;13.40;;;;;;;5.17;100.00;100373.88;7395615;19;20455;-38
2023/12/12 01:17:47;;;;;;;32.83;12.77;;;;;;;5.09;100.00;100365.75;7374350;19;20490;-39
2023/12/12 01:20:17;;;;;;;35.60;12.00;;;;;;;5.07;100.00;100367.34;7394715;19;20401;-39
2023/12/12 01:22:47;;;;;;;26.87;12.00;;;;;;;5.08;100.00;100369.09;7373786;19;20423;-38
2023/12/12 01:25:19;;;;;;;46.97;19.67;;;;;;;5.05;100.00;100393.63;7395425;19;20535;-39
2023/12/12 01:27:48;;;;;;;35.23;14.97;;;;;;;5.03;100.00;100393.53;7373457;19;20427;-39
2023/12/12 01:30:18;;;;;;;30.00;10.90;;;;;;;4.85;100.00;100403.56;7394772;19;20412;-38
2023/12/12 01:32:48;;;;;;;35.40;12.23;;;;;;;4.83;100.00;100417.94;7372448;19;20786;-39
2023/12/12 01:35:17;;;;;;;27.07;12.60;;;;;;;4.80;100.00;100433.97;7394828;19;20451;-42
2023/12/12 01:37:47;;;;;;;39.30;13.30;;;;;;;4.79;100.00;100452.66;7373588;19;20982;-39
2023/12/12 01:40:19;;;;;;;33.33;12.90;;;;;;;4.84;100.00;100465.72;7394800;19;20431;-39
2023/12/12 01:42:48;;;;;;;38.50;14.60;;;;;;;4.91;100.00;100477.19;7372743;19;20419;-40
2023/12/12 01:45:18;;;;;;;42.83;13.63;;;;;;;4.88;100.00;100483.00;7394103;19;20826;-40
2023/12/12 01:47:48;;;;;;;31.60;13.20;;;;;;;4.91;100.00;100483.19;7371561;19;20419;-39
2023/12/12 01:50:18;;;;;;;45.47;17.40;;;;;;;5.03;100.00;100492.38;7393931;19;20484;-39
2023/12/12 01:52:48;;;;;;;67.93;24.77;;;;;;;5.07;100.00;100489.22;7373085;19;20423;-39
2023/12/12 01:55:20;;;;;;;57.57;22.20;;;;;;;5.10;100.00;100479.16;7395502;19;20441;-39
2023/12/12 01:57:50;;;;;;;33.63;12.37;;;;;;;4.95;100.00;100474.03;7372968;19;20498;-38
2023/12/12 02:00:20;;;;;;;30.27;12.03;;;;;;;4.91;100.00;100460.16;7394128;19;20399;-38
2023/12/12 02:02:50;;;;;;;33.90;13.83;;;;;;;4.86;100.00;100461.56;7372522;19;21327;-38
2023/12/12 02:05:19;;;;;;;39.80;12.13;;;;;;;4.75;100.00;100473.69;7394517;19;20868;-38
2023/12/12 02:07:51;;;;;;;39.60;10.17;;;;;;;4.53;100.00;100479.16;7372966;19;20772;-38
2023/12/12 02:10:24;;;;;;;42.03;9.93;;;;;;;4.37;100.00;100493.56;7394114;19;20408;-38
2023/12/12 02:12:53;;;;;;;41.27;12.20;;;;;;;4.43;100.00;100510.94;7371149;19;20424;-39
2023/12/12 02:15:23;;;;;;;47.17;8.80;;;;;;;4.43;100.00;100511.84;7393775;19;20531;-38
2023/12/12 02:17:52;;;;;;;102.97;12.17;;;;;;;4.40;100.00;100519.28;7371099;19;20415;-38
2023/12/12 02:20:22;;;;;;;35.17;10.40;;;;;;;4.39;100.00;100530.31;7394318;19;20491;-38
2023/12/12 02:22:54;;;;;;;67.60;15.57;;;;;;;4.62;100.00;100546.19;7371798;19;20418;-39
2023/12/12 02:25:24;;;;;;;55.33;12.33;;;;;;;4.52;100.00;100556.63;7394108;19;20811;-38
2023/12/12 02:27:54;;;;;;;34.70;11.13;;;;;;;4.41;100.00;100556.81;7370867;19;20779;-40
2023/12/12 02:30:23;;;;;;;36.90;9.13;;;;;;;4.52;100.00;100559.19;7393417;19;20415;-42
2023/12/12 02:32:53;;;;;;;45.37;11.70;;;;;;;4.45;100.00;100563.00;7365382;19;20425;-38
2023/12/12 02:35:23;;;;;;;41.63;14.10;;;;;;;4.49;100.00;100564.06;7393237;19;20432;-38
2023/12/12 02:37:55;;;;;;;43.30;10.30;;;;;;;4.41;100.00;100556.81;7371217;19;21198;-39
2023/12/12 02:40:24;;;;;;;44.77;12.67;;;;;;;4.48;100.00;100564.88;7394516;19;20402;-38
2023/12/12 02:42:54;;;;;;;41.17;11.83;;;;;;;4.49;100.00;100554.75;7371071;19;20423;-38
2023/12/12 02:45:24;;;;;;;79.53;10.57;;;;;;;4.44;100.00;100557.03;7394005;19;20439;-38
2023/12/12 02:47:53;;;;;;;99.20;12.70;;;;;;;4.42;100.00;100568.78;7368398;19;20423;-39
2023/12/12 02:50:23;;;;;;;58.93;10.60;;;;;;;4.39;100.00;100570.28;7392407;19;20411;-38
2023/12/12 02:52:56;;;;;;;42.50;11.70;;;;;;;4.40;100.00;100574.59;7370226;19;20415;-40
2023/12/12 02:55:26;;;;;;;92.90;18.43;;;;;;;4.49;100.00;100585.41;7392569;19;20448;-38
2023/12/12 02:57:56;;;;;;;99.80;12.70;;;;;;;4.51;100.00;100582.97;7369016;19;20822;-40
2023/12/12 03:00:25;;;;;;;37.13;11.90;;;;;;;4.40;100.00;100582.25;7392485;19;20408;-38
2023/12/12 03:02:55;;;;;;;55.90;11.73;;;;;;;4.42;100.00;100586.69;7369510;19;20782;-39
2023/12/12 03:05:24;;;;;;;48.70;11.77;;;;;;;4.43;100.00;100592.69;7393877;19;20518;-38
2023/12/12 03:07:57;;;;;;;60.40;11.70;;;;;;;4.40;100.00;100592.47;7369115;19;20417;-38
2023/12/12 03:10:26;;;;;;;38.47;12.53;;;;;;;4.42;100.00;100594.34;7391113;19;20400;-37
2023/12/12 03:12:56;;;;;;;35.57;11.40;;;;;;;4.45;100.00;100589.44;7371182;19;20429;-39
2023/12/12 03:15:26;;;;;;;54.67;16.50;;;;;;;4.65;100.00;100587.28;7391593;19;20446;-38
2023/12/12 03:17:55;;;;;;;70.13;22.57;;;;;;;4.68;100.00;100587.44;7372095;19;20439;-38
2023/12/12 03:20:25;;;;;;;38.43;11.23;;;;;;;4.58;100.00;100585.13;7391993;19;20430;-38
2023/12/12 03:22:57;;;;;;;42.20;11.90;;;;;;;4.50;100.00;100592.28;7368672;19;20985;-38
2023/12/12 03:25:26;;;;;;;65.93;12.30;;;;;;;4.53;100.00;100592.50;7391937;19;20446;-39
2023/12/12 03:27:56;;;;;;;38.77;13.23;;;;;;;4.40;100.00;100585.72;7368589;19;20432;-41
2023/12/12 03:30:26;;;;;;;44.57;12.53;;;;;;;4.40;100.00;100583.16;7391064;19;20522;-38
2023/12/12 03:32:56;;;;;;;76.37;12.90;;;;;;;4.49;100.00;100582.88;7368518;19;20473;-38
2023/12/12 03:35:25;;;;;;;37.87;12.77;;;;;;;4.55;100.00;100583.25;7391361;19;20523;-40
2023/12/12 03:37:57;;;;;;;41.90;13.63;;;;;;;4.72;100.00;100581.75;7369395;19;20428;-38
2023/12/12 03:40:27;;;;;;;35.93;12.27;;;;;;;4.68;100.00;100582.34;7391189;19;20412;-39
2023/12/12 03:42:57;;;;;;;38.17;12.03;;;;;;;4.66;100.00;100583.06;7368302;19;20417;-39
2023/12/12 03:45:26;;;;;;;38.27;10.67;;;;;;;4.62;100.00;100571.75;7391134;19;20514;-38
2023/12/12 03:47:56;;;;;;;40.13;10.60;;;;;;;4.56;100.00;100576.47;7365774;19;20434;-38
2023/12/12 03:50:25;;;;;;;137.90;13.90;;;;;;;4.57;100.00;100573.13;7392888;19;20410;-39
2023/12/12 03:52:57;;;;;;;45.83;14.03;;;;;;;4.52;100.00;100566.84;7368029;19;20423;-40
2023/12/12 03:55:27;;;;;;;41.83;12.10;;;;;;;4.59;100.00;100567.34;7391432;19;20449;-40
2023/12/12 03:57:57;;;;;;;35.60;12.10;;;;;;;4.63;100.00;100570.97;7374456;19;20407;-39
2023/12/12 04:00:26;;;;;;;36.73;11.27;;;;;;;4.61;100.00;100557.19;7399694;19;20403;-38
2023/12/12 04:02:56;;;;;;;39.87;11.37;;;;;;;4.56;100.00;100556.03;7374729;19;20458;-39
2023/12/12 04:05:26;;;;;;;39.07;11.50;;;;;;;4.66;100.00;100553.25;7397726;19;20447;-39
2023/12/12 04:07:58;;;;;;;34.97;12.40;;;;;;;4.63;100.00;100550.53;7374066;19;20451;-40
2023/12/12 04:10:27;;;;;;;41.97;12.80;;;;;;;4.68;100.00;100546.56;7396980;19;20842;-38
2023/12/12 04:12:57;;;;;;;32.17;11.10;;;;;;;4.70;100.00;100546.66;7374721;19;20415;-39
2023/12/12 04:15:29;;;;;;;40.23;11.70;;;;;;;4.64;100.00;100552.28;7397463;19;20427;-39
2023/12/12 04:17:59;;;;;;;40.27;12.87;;;;;;;4.70;100.00;100536.44;7375088;19;20423;-41
2023/12/12 04:20:29;;;;;;;50.10;13.03;;;;;;;4.67;100.00;100544.78;7396045;19;20415;-40
2023/12/12 04:23:01;;;;;;;39.83;12.80;;;;;;;4.61;100.00;100536.75;7374360;19;20419;-38
2023/12/12 04:25:31;;;;;;;47.23;14.33;;;;;;;4.63;100.00;100542.84;7397130;19;20510;-41
2023/12/12 04:28:00;;;;;;;46.37;16.03;;;;;;;4.70;100.00;100524.56;7373387;19;20427;-39
2023/12/12 04:30:30;;;;;;;39.87;12.70;;;;;;;4.73;100.00;100519.59;7398929;19;20447;-39
2023/12/12 04:33:00;;;;;;;46.00;14.43;;;;;;;4.70;100.00;100514.31;7373665;19;20498;-40
2023/12/12 04:35:29;;;;;;;36.73;13.60;;;;;;;4.68;100.00;100498.00;7398045;19;21047;-39
2023/12/12 04:38:02;;;;;;;43.30;13.17;;;;;;;4.70;100.00;100480.19;7373178;19;20419;-38
2023/12/12 04:40:31;;;;;;;48.97;12.33;;;;;;;4.69;100.00;100471.66;7396345;19;20400;-41
2023/12/12 04:43:01;;;;;;;49.93;14.60;;;;;;;4.72;100.00;100459.06;7373831;19;20419;-43
2023/12/12 04:45:31;;;;;;;32.40;11.73;;;;;;;4.71;100.00;100453.84;7396113;19;20444;-41
2023/12/12 04:48:00;;;;;;;34.97;12.37;;;;;;;4.69;100.00;100435.88;7371633;19;20431;-40
2023/12/12 04:50:30;;;;;;;41.73;12.37;;;;;;;4.68;100.00;100428.13;7395442;19;20772;-39
2023/12/12 04:53:02;;;;;;;42.80;13.40;;;;;;;4.59;100.00;100418.22;7373497;19;20494;-41
2023/12/12 04:55:32;;;;;;;43.30;15.40;;;;;;;4.54;100.00;100442.59;7396193;19;20499;-39
2023/12/12 04:58:02;;;;;;;34.90;13.07;;;;;;;4.54;100.00;100434.94;7372935;19;20419;-39
2023/12/12 05:00:31;;;;;;;48.30;14.60;;;;;;;4.57;100.00;100424.91;7397747;19;20422;-39
2023/12/12 05:03:01;;;;;;;61.20;13.33;;;;;;;4.56;100.00;100412.94;7372808;19;20494;-38
2023/12/12 05:05:31;;;;;;;47.63;14.20;;;;;;;4.60;100.00;100414.88;7396038;19;20849;-40
2023/12/12 05:08:03;;;;;;;40.23;14.50;;;;;;;4.59;100.00;100410.56;7371800;19;21084;-39
2023/12/12 05:10:32;;;;;;;40.77;13.67;;;;;;;4.64;100.00;100414.28;7395520;19;20423;-40
2023/12/12 05:12:59;;;;;;;38.97;12.37;;;;;;;4.63;100.00;100407.41;7375074;19;20809;-41
2023/12/12 05:15:30;;;;;;;42.47;14.00;;;;;;;4.68;100.00;100412.78;7394560;19;20824;-38
2023/12/12 05:18:00;;;;;;;42.53;13.20;;;;;;;4.68;100.00;100403.44;7373513;19;20433;-39
2023/12/12 05:20:30;;;;;;;45.10;13.60;;;;;;;4.66;100.00;100402.47;7395122;19;20475;-40
2023/12/12 05:23:02;;;;;;;41.57;15.43;;;;;;;4.65;100.00;100402.34;7373626;19;21117;-40
2023/12/12 05:25:32;;;;;;;36.60;12.50;;;;;;;4.60;100.00;100396.97;7395202;19;20967;-40
2023/12/12 05:28:03;;;;;;;41.80;13.97;;;;;;;4.59;100.00;100393.56;7372487;19;20440;-40
2023/12/12 05:30:32;;;;;;;41.23;13.83;;;;;;;4.55;100.00;100393.25;7394962;19;20408;-40
2023/12/12 05:33:02;;;;;;;41.53;14.70;;;;;;;4.54;100.00;100392.41;7372008;19;20419;-39
2023/12/12 05:35:32;;;;;;;43.67;13.70;;;;;;;4.60;100.00;100394.44;7394979;19;20502;-38
2023/12/12 05:38:06;;;;;;;34.83;12.03;;;;;;;4.64;100.00;100391.28;7373461;19;20430;-42
2023/12/12 05:40:36;;;;;;;40.00;13.13;;;;;;;4.65;100.00;100390.47;7394322;19;20961;-40
2023/12/12 05:43:06;;;;;;;45.03;14.63;;;;;;;4.67;100.00;100388.03;7372161;19;20433;-39
2023/12/12 05:45:35;;;;;;;41.50;14.17;;;;;;;4.64;100.00;100392.94;7395255;19;20443;-38
2023/12/12 05:48:05;;;;;;;47.90;13.83;;;;;;;4.57;100.00;100399.38;7371021;19;20500;-40
2023/12/12 05:50:36;;;;;;;41.77;15.03;;;;;;;4.61;100.00;100411.53;7394670;19;20407;-38
2023/12/12 05:53:08;;;;;;;43.00;12.60;;;;;;;4.63;100.00;100420.19;7371852;19;20419;-39
2023/12/12 05:55:38;;;;;;;39.90;13.73;;;;;;;4.58;100.00;100426.69;7395591;19;20507;-42
2023/12/12 05:58:07;;;;;;;43.40;14.77;;;;;;;4.58;100.00;100421.56;7372577;19;21249;-40
2023/12/12 06:00:39;;;;;;;35.00;13.60;;;;;;;4.60;100.00;100414.88;7395048;19;20933;-40
2023/12/12 06:03:09;;;;;;;56.00;15.17;;;;;;;4.67;100.00;100401.66;7368957;19;20415;-38
2023/12/12 06:05:39;;;;;;;47.40;15.00;;;;;;;4.62;100.00;100402.19;7395164;19;20460;-40
2023/12/12 06:08:11;;;;;;;40.27;13.43;;;;;;;4.65;100.00;100400.69;7365578;19;20419;-41
2023/12/12 06:10:41;;;;;;;43.60;14.00;;;;;;;4.57;100.00;100405.34;7393851;19;20399;-41
2023/12/12 06:13:10;;;;;;;48.87;14.43;;;;;;;4.59;100.00;100408.00;7373591;19;20435;-40
2023/12/12 06:15:40;;;;;;;63.80;16.97;;;;;;;4.60;100.00;100414.88;7395932;19;20826;-39
2023/12/12 06:18:09;;;;;;;53.67;16.20;;;;;;;4.64;100.00;100426.16;7366348;19;20419;-39
2023/12/12 06:20:39;;;;;;;52.60;15.17;;;;;;;4.65;100.00;100423.69;7394689;19;20404;-39
2023/12/12 06:23:12;;;;;;;49.23;15.73;;;;;;;4.67;100.00;100426.34;7369476;19;20584;-38
2023/12/12 06:25:42;;;;;;;46.03;14.60;;;;;;;4.68;100.00;100423.00;7395914;19;20519;-38
2023/12/12 06:28:12;;;;;;;60.20;16.23;;;;;;;4.68;100.00;100428.97;7371023;19;20433;-39
2023/12/12 06:30:41;;;;;;;48.47;14.70;;;;;;;4.65;100.00;100428.81;7393579;19;20408;-41
2023/12/12 06:33:11;;;;;;;44.03;13.30;;;;;;;4.62;100.00;100433.75;7371842;19;20447;-39
2023/12/12 06:35:41;;;;;;;70.87;19.03;;;;;;;4.67;100.00;100437.44;7394938;19;20439;-39
2023/12/12 06:38:13;;;;;;;46.90;13.93;;;;;;;4.62;100.00;100432.84;7371927;19;20853;-40
2023/12/12 06:40:43;;;;;;;55.13;15.87;;;;;;;4.63;100.00;100440.63;7396184;19;20404;-40
2023/12/12 06:43:13;;;;;;;64.30;15.50;;;;;;;4.64;100.00;100449.16;7371953;19;20859;-39
2023/12/12 06:45:42;;;;;;;56.33;15.90;;;;;;;4.61;100.00;100447.28;7393935;19;20456;-38
2023/12/12 06:51:49;;;;;;;65.33;16.90;;;;;;;4.63;100.00;100399.72;7410236;19;20502;-39
2023/12/12 06:54:18;;;;;;;51.73;15.07;;;;;;;4.67;100.00;100411.88;7399587;19;20441;-35
2023/12/12 06:56:46;;;;;;;52.30;16.40;;;;;;;4.64;100.00;100416.81;7425053;19;20406;-35
2023/12/12 06:59:14;;;;;;;67.13;15.97;;;;;;;4.65;100.00;100423.69;7401940;19;20438;-37
2023/12/12 07:01:43;;;;;;;57.00;17.83;;;;;;;4.62;100.00;100428.66;7420649;19;20395;-35
2023/12/12 07:04:11;;;;;;;57.13;17.07;;;;;;;4.60;100.00;100445.53;7397016;19;20397;-35
2023/12/12 07:06:40;;;;;;;55.43;17.23;;;;;;;4.60;100.00;100440.44;7418382;19;20494;-35
2023/12/12 07:09:12;;;;;;;55.07;17.07;;;;;;;4.59;100.00;100454.00;7233253;19;3116951;-36
2023/12/12 07:11:43;;;;;;;58.83;17.53;;;;;;;4.57;100.00;100459.00;7422076;19;20578;-36
2023/12/12 07:14:13;;;;;;;54.13;15.60;;;;;;;4.54;100.00;100466.50;7405795;19;20485;-40
2023/12/12 07:16:43;;;;;;;51.73;16.57;;;;;;;4.50;100.00;100477.31;7426868;19;20396;-37
2023/12/12 07:19:12;;;;;;;50.77;15.63;;;;;;;4.51;100.00;100481.63;7400861;19;20433;-38
2023/12/12 07:21:42;;;;;;;45.57;13.90;;;;;;;4.56;100.00;100490.47;7426654;19;20407;-35
2023/12/12 07:24:15;;;;;;;44.57;13.70;;;;;;;4.56;100.00;100495.56;7403976;19;20438;-35
2023/12/12 07:26:46;;;;;;;40.20;13.53;;;;;;;4.57;100.00;100496.47;7426855;19;20391;-34
2023/12/12 07:29:18;;;;;;;46.40;15.00;;;;;;;4.53;100.00;100500.50;7401808;19;20433;-40
2023/12/12 07:31:50;;;;;;;31.30;11.77;;;;;;;4.45;100.00;100512.81;7423146;19;20404;-35
2023/12/12 07:34:20;;;;;;;38.40;11.23;;;;;;;4.45;100.00;100517.91;7401765;19;20397;-34
2023/12/12 07:36:49;;;;;;;26.10;9.60;;;;;;;4.44;100.00;100516.16;7423146;19;20390;-35
2023/12/12 07:39:22;;;;;;;35.23;11.67;;;;;;;4.43;100.00;100518.59;7401314;19;20402;-34
2023/12/12 07:41:51;;;;;;;31.83;10.90;;;;;;;4.48;100.00;100521.44;7425847;19;20474;-35
2023/12/12 07:44:21;;;;;;;34.97;9.37;;;;;;;4.48;100.00;100531.66;7401574;19;20509;-35
2023/12/12 07:46:51;;;;;;;22.60;8.50;;;;;;;4.49;100.00;100533.41;7422851;19;20383;-34
2023/12/12 07:49:20;;;;;;;26.27;8.40;;;;;;;4.47;100.00;100538.47;7399130;19;20401;-34
2023/12/12 07:51:50;;;;;;;21.53;8.20;;;;;;;4.53;100.00;100545.59;7426159;19;20402;-34
2023/12/12 07:54:23;;;;;;;28.07;10.17;;;;;;;4.53;100.00;100550.72;7401447;19;20394;-34
2023/12/12 07:56:53;;;;;;;28.33;9.70;;;;;;;4.55;100.00;100550.03;7424674;19;20482;-35
2023/12/12 07:59:22;;;;;;;24.73;8.53;;;;;;;4.54;100.00;100555.03;7400984;19;20436;-37
2023/12/12 08:01:52;;;;;;;24.40;8.83;;;;;;;4.49;100.00;100553.84;7413504;19;20420;-36
2023/12/12 08:04:22;;;;;;;25.17;9.17;;;;;;;4.39;100.00;100550.75;7375081;19;20808;-35
2023/12/12 08:06:52;;;;;;;37.23;13.50;;;;;;;4.47;100.00;100548.69;7392968;19;20977;-36
2023/12/12 08:09:24;;;;;;;27.37;9.67;;;;;;;4.51;100.00;100558.28;7372617;19;20459;-36
2023/12/12 08:11:54;;;;;;;30.10;10.63;;;;;;;4.56;100.00;100553.47;7391209;19;20787;-35
2023/12/12 08:14:24;;;;;;;30.17;10.30;;;;;;;4.51;100.00;100542.09;7376651;19;20518;-35
2023/12/12 08:16:53;;;;;;;41.60;13.70;;;;;;;4.47;100.00;100543.56;7397197;19;20419;-36
2023/12/12 08:19:23;;;;;;;33.10;11.30;;;;;;;4.49;100.00;100543.63;7373892;19;20486;-37
2023/12/12 08:21:53;;;;;;;35.87;12.73;;;;;;;4.50;100.00;100538.63;7390988;19;20400;-36
2023/12/12 08:24:25;;;;;;;35.47;12.47;;;;;;;4.52;100.00;100548.97;7375279;19;20575;-36
2023/12/12 08:26:55;;;;;;;44.87;14.90;;;;;;;4.52;100.00;100539.59;7393292;19;20927;-37
2023/12/12 08:29:25;;;;;;;35.13;10.10;;;;;;;4.56;100.00;100543.25;7370030;19;20427;-39
2023/12/12 08:31:58;;;;;;;31.27;10.40;;;;;;;4.59;100.00;100551.09;7396701;19;20442;-39
2023/12/12 08:34:28;;;;;;;29.90;9.60;;;;;;;4.61;100.00;100554.63;7375323;19;21026;-36
2023/12/12 08:36:58;;;;;;;27.30;10.20;;;;;;;4.57;100.00;100548.44;7397802;19;20828;-36
2023/12/12 08:39:31;;;;;;;31.83;10.00;;;;;;;4.60;100.00;100550.31;7371370;19;20422;-36
2023/12/12 08:42:00;;;;;;;29.07;10.33;;;;;;;4.61;100.00;100546.97;7395791;19;20766;-36
2023/12/12 08:44:30;;;;;;;41.30;16.17;;;;;;;4.66;100.00;100553.25;7371968;19;20418;-37
2023/12/12 08:47:00;;;;;;;28.43;9.60;;;;;;;4.66;100.00;100558.38;7392726;19;21405;-36
2023/12/12 08:49:29;;;;;;;35.87;11.50;;;;;;;4.73;100.00;100557.09;7370849;19;20419;-35
2023/12/12 08:51:59;;;;;;;45.83;16.20;;;;;;;4.75;100.00;100563.16;7397614;19;20427;-36
2023/12/12 08:54:31;;;;;;;30.27;10.27;;;;;;;4.70;100.00;100565.44;7372109;19;20449;-36
2023/12/12 08:57:02;;;;;;;30.40;10.70;;;;;;;4.70;100.00;100562.00;7391387;19;20383;-35
2023/12/12 08:59:32;;;;;;;30.03;11.17;;;;;;;4.68;100.00;100546.56;7394256;19;20457;-38
2023/12/12 09:02:03;;;;;;;32.17;9.97;;;;;;;4.65;100.00;100550.59;7394553;19;20433;-36
2023/12/12 09:04:34;;;;;;;29.90;10.57;;;;;;;4.72;100.00;100540.84;7397716;19;20396;-36
2023/12/12 09:07:03;;;;;;;30.53;10.30;;;;;;;4.77;100.00;100546.25;7375675;19;20430;-37
2023/12/12 09:09:36;;;;;;;32.10;11.53;;;;;;;4.77;100.00;100543.69;7248107;19;2812079;-37
2023/12/12 09:12:05;;;;;;;41.73;14.10;;;;;;;4.84;100.00;100543.31;7368871;19;20142;-35
2023/12/12 09:14:35;;;;;;;33.50;12.67;;;;;;;4.81;100.00;100543.09;7392542;19;20432;-34
2023/12/12 09:17:05;;;;;;;36.23;11.60;;;;;;;4.83;100.00;100551.72;7376106;19;20768;-35
2023/12/12 09:19:35;;;;;;;45.03;12.63;;;;;;;4.82;100.00;100546.56;7394492;19;20785;-34
2023/12/12 09:22:05;;;;;;;36.20;11.20;;;;;;;4.81;100.00;100543.09;7374116;19;20404;-37
2023/12/12 09:24:38;;;;;;;77.20;27.53;;;;;;;4.88;100.00;100544.38;7394614;19;20433;-35
2023/12/12 09:27:07;;;;;;;86.37;32.00;;;;;;;5.16;100.00;100550.25;7371513;19;20421;-40
2023/12/12 09:29:37;;;;;;;50.90;17.80;;;;;;;5.32;100.00;100539.31;7391797;19;20419;-36
2023/12/12 09:32:07;;;;;;;43.33;13.20;;;;;;;5.20;100.00;100524.97;7370180;19;20392;-36
2023/12/12 09:34:37;;;;;;;52.73;13.33;;;;;;;5.12;100.00;100500.59;7389722;19;20388;-37
2023/12/12 09:37:07;;;;;;;46.33;15.00;;;;;;;5.17;100.00;100480.44;7367508;19;20422;-37
2023/12/12 09:39:39;;;;;;;52.60;17.10;;;;;;;5.16;100.00;100461.63;7389774;19;20439;-37
2023/12/12 09:42:15;;;;;;;43.57;12.63;;;;;;;5.11;100.00;100428.13;7365257;19;20403;-37
2023/12/12 09:44:51;;;;;;;36.80;11.30;;;;;;;5.23;100.00;100415.16;7387762;19;20408;-40
2023/12/12 09:47:21;;;;;;;40.93;11.97;;;;;;;5.29;100.00;100398.41;7367536;19;20399;-36
2023/12/12 09:49:54;;;;;;;43.03;13.73;;;;;;;5.10;100.00;100376.88;7386941;19;20403;-37
2023/12/12 09:52:23;;;;;;;36.27;11.70;;;;;;;5.03;100.00;100364.53;7369659;19;20423;-42
2023/12/12 09:54:56;;;;;;;33.70;11.90;;;;;;;5.04;100.00;100358.63;7390260;19;20402;-37
2023/12/12 09:57:30;;;;;;;35.40;10.40;;;;;;;5.03;100.00;100352.59;7370245;19;20399;-36
2023/12/12 10:00:00;;;;;;;32.00;10.60;;;;;;;5.06;100.00;100351.91;7389695;19;20445;-41
2023/12/12 10:02:34;;;;;;;28.87;10.07;;;;;;;5.06;100.00;100344.22;7371991;19;20399;-38
2023/12/12 10:07:48;;;;;;;27.80;8.77;;;;;;;5.06;100.00;100340.00;7369906;19;20939;-40
2023/12/12 10:10:35;;;;;;;32.43;9.70;;;;;;;5.13;100.00;100331.03;7390469;19;20407;-40
2023/12/12 10:13:05;;;;;;;28.13;10.50;;;;;;;5.12;100.00;100325.00;7370405;19;20387;-39
2023/12/12 10:15:34;;;;;;;35.30;11.40;;;;;;;5.10;100.00;100320.59;7392600;19;20462;-40
2023/12/12 10:18:04;;;;;;;25.40;10.00;;;;;;;5.11;100.00;100320.69;7370147;19;20418;-40
2023/12/12 10:20:35;;;;;;;28.17;10.63;;;;;;;5.11;100.00;100312.13;7391777;19;20950;-39
2023/12/12 10:23:06;;;;;;;30.03;9.60;;;;;;;5.12;100.00;100303.66;7370364;19;20395;-38
2023/12/12 10:25:38;;;;;;;22.20;8.80;;;;;;;5.09;100.00;100294.13;7392852;19;20503;-40
2023/12/12 10:28:08;;;;;;;23.30;9.47;;;;;;;5.06;100.00;100281.19;7370062;19;20490;-41
2023/12/12 10:30:39;;;;;;;23.60;8.43;;;;;;;5.08;100.00;100284.72;7391773;19;20412;-40
2023/12/12 10:33:14;;;;;;;18.27;7.60;;;;;;;5.17;100.00;100286.91;7370327;19;20403;-40
2023/12/12 10:35:47;;;;;;;24.03;7.90;;;;;;;5.20;100.00;100274.31;7392488;19;20455;-39
2023/12/12 10:38:16;;;;;;;27.30;10.20;;;;;;;5.17;100.00;100263.88;7370563;19;20391;-42
2023/12/12 10:40:49;;;;;;;16.73;6.97;;;;;;;5.24;100.00;100258.31;7389887;19;20413;-39
2023/12/12 10:43:20;;;;;;;12.83;5.53;;;;;;;5.18;100.00;100259.66;7364939;19;20415;-39
2023/12/12 10:45:50;;;;;;;14.07;5.30;;;;;;;5.23;100.00;100256.56;7389284;19;20798;-39
2023/12/12 10:48:21;;;;;;;12.13;5.03;;;;;;;5.34;100.00;100251.16;7368807;19;20785;-40
2023/12/12 10:50:54;;;;;;;12.10;4.77;;;;;;;5.32;100.00;100242.53;7393745;19;20476;-40
2023/12/12 10:53:25;;;;;;;14.83;6.67;;;;;;;5.29;100.00;100232.09;7366914;19;21099;-39
2023/12/12 10:55:58;;;;;;;10.93;5.83;;;;;;;5.33;100.00;100232.34;7392350;19;20458;-39
2023/12/12 10:58:28;;;;;;;16.23;7.33;;;;;;;5.32;100.00;100229.75;7368302;19;20484;-40
2023/12/12 11:00:59;;;;;;;12.10;4.73;;;;;;;5.40;100.00;100225.91;7392037;19;20487;-40
2023/12/12 11:03:29;;;;;;;10.33;4.87;;;;;;;5.34;100.00;100208.53;7367830;19;20418;-40
2023/12/12 11:06:00;;;;;;;10.00;4.63;;;;;;;5.39;100.00;100201.97;7374748;19;20438;-40
2023/12/12 11:08:30;;;;;;;11.27;4.33;;;;;;;5.37;100.00;100193.34;7369483;19;20848;-41
2023/12/12 11:11:04;;;;;;;15.10;6.13;;;;;;;5.36;100.00;100188.16;7391026;19;20452;-42
2023/12/12 11:13:36;;;;;;;8.60;4.60;;;;;;;5.27;100.00;100184.31;7366660;19;20415;-39
2023/12/12 11:16:08;;;;;;;8.60;4.20;;;;;;;5.25;100.00;100179.91;7391322;19;20442;-39
2023/12/12 11:18:39;;;;;;;8.27;4.43;;;;;;;5.24;100.00;100166.22;7368697;19;20498;-40
2023/12/12 11:21:09;;;;;;;10.80;5.40;;;;;;;5.17;100.00;100166.69;7390871;19;20980;-41
2023/12/12 11:23:57;;;;;;;13.13;5.00;;;;;;;5.15;100.00;100165.75;7370893;19;20974;-40
2023/12/12 11:26:31;;;;;;;8.80;4.90;;;;;;;5.06;100.00;100166.13;7391259;19;20451;-39
2023/12/12 11:29:01;;;;;;;9.53;5.27;;;;;;;5.11;100.00;100158.69;7367610;19;20427;-39